sensor_id;sensor_type;location;lat;lon;timestamp;P1;durP1;ratioP1;P2;durP2;ratioP2
72891;SDS011;61032;50.782;6.818;2023-06-10T00:00:42;7.30;;;6.30;;
72891;SDS011;61032;50.782;6.818;2023-06-10T00:01:44;8.00;;;5.38;;
72891;SDS011;61032;50.782;6.818;2023-06-10T00:02:47;11.25;;;6.25;;
72891;SDS011;61032;50.782;6.818;2023-06-10T00:03:47;9.80;;;5.40;;
72891;SDS011;61032;50.782;6.818;2023-06-10T00:04:47;8.10;;;5.57;;
72891;SDS011;61032;50.782;6.818;2023-06-10T00:05:48;13.65;;;6.40;;
72891;SDS011;61032;50.782;6.818;2023-06-10T00:06:49;6.95;;;6.13;;
72891;SDS011;61032;50.782;6.818;2023-06-10T00:07:49;6.97;;;6.30;;
72891;SDS011;61032;50.782;6.818;2023-06-10T00:08:50;8.32;;;6.30;;
72891;SDS011;61032;50.782;6.818;2023-06-10T00:09:51;8.05;;;6.57;;
72891;SDS011;61032;50.782;6.818;2023-06-10T00:10:51;7.22;;;6.28;;
72891;SDS011;61032;50.782;6.818;2023-06-10T00:11:51;8.00;;;6.05;;
72891;SDS011;61032;50.782;6.818;2023-06-10T00:12:52;6.70;;;6.00;;
72891;SDS011;61032;50.782;6.818;2023-06-10T00:13:52;7.07;;;6.30;;
72891;SDS011;61032;50.782;6.818;2023-06-10T00:14:52;10.27;;;6.85;;
72891;SDS011;61032;50.782;6.818;2023-06-10T00:15:53;7.10;;;6.40;;
72891;SDS011;61032;50.782;6.818;2023-06-10T00:16:53;8.05;;;6.20;;
72891;SDS011;61032;50.782;6.818;2023-06-10T00:17:55;6.70;;;6.00;;
72891;SDS011;61032;50.782;6.818;2023-06-10T00:18:55;8.55;;;6.70;;
72891;SDS011;61032;50.782;6.818;2023-06-10T00:20:00;6.80;;;5.70;;
72891;SDS011;61032;50.782;6.818;2023-06-10T00:21:04;7.05;;;6.35;;
72891;SDS011;61032;50.782;6.818;2023-06-10T00:22:04;7.97;;;6.60;;
72891;SDS011;61032;50.782;6.818;2023-06-10T00:23:05;7.38;;;6.18;;
72891;SDS011;61032;50.782;6.818;2023-06-10T00:24:08;6.70;;;5.75;;
72891;SDS011;61032;50.782;6.818;2023-06-10T00:25:13;7.57;;;6.50;;
72891;SDS011;61032;50.782;6.818;2023-06-10T00:26:14;7.38;;;6.45;;
72891;SDS011;61032;50.782;6.818;2023-06-10T00:27:15;10.25;;;6.38;;
72891;SDS011;61032;50.782;6.818;2023-06-10T00:28:15;6.78;;;5.55;;
72891;SDS011;61032;50.782;6.818;2023-06-10T00:29:16;7.18;;;6.00;;
72891;SDS011;61032;50.782;6.818;2023-06-10T00:30:16;7.32;;;5.90;;
72891;SDS011;61032;50.782;6.818;2023-06-10T00:31:16;8.82;;;6.72;;
72891;SDS011;61032;50.782;6.818;2023-06-10T00:32:17;8.23;;;6.32;;
72891;SDS011;61032;50.782;6.818;2023-06-10T00:33:17;7.10;;;5.95;;
72891;SDS011;61032;50.782;6.818;2023-06-10T00:34:18;7.72;;;6.60;;
72891;SDS011;61032;50.782;6.818;2023-06-10T00:35:18;7.97;;;5.90;;
72891;SDS011;61032;50.782;6.818;2023-06-10T00:36:19;9.05;;;6.30;;
72891;SDS011;61032;50.782;6.818;2023-06-10T00:37:21;8.27;;;5.70;;
72891;SDS011;61032;50.782;6.818;2023-06-10T00:38:21;7.38;;;6.68;;
72891;SDS011;61032;50.782;6.818;2023-06-10T00:39:21;7.13;;;5.55;;
72891;SDS011;61032;50.782;6.818;2023-06-10T00:40:21;9.07;;;6.93;;
72891;SDS011;61032;50.782;6.818;2023-06-10T00:41:22;7.18;;;5.50;;
72891;SDS011;61032;50.782;6.818;2023-06-10T00:42:22;7.53;;;6.72;;
72891;SDS011;61032;50.782;6.818;2023-06-10T00:43:24;6.40;;;5.60;;
72891;SDS011;61032;50.782;6.818;2023-06-10T00:44:24;8.10;;;5.63;;
72891;SDS011;61032;50.782;6.818;2023-06-10T00:45:24;7.80;;;6.50;;
72891;SDS011;61032;50.782;6.818;2023-06-10T00:46:25;9.82;;;5.70;;
72891;SDS011;61032;50.782;6.818;2023-06-10T00:47:27;8.88;;;7.15;;
72891;SDS011;61032;50.782;6.818;2023-06-10T00:48:28;11.15;;;6.22;;
72891;SDS011;61032;50.782;6.818;2023-06-10T00:49:28;7.45;;;6.15;;
72891;SDS011;61032;50.782;6.818;2023-06-10T00:50:29;6.80;;;6.10;;
72891;SDS011;61032;50.782;6.818;2023-06-10T00:51:30;8.32;;;5.95;;
72891;SDS011;61032;50.782;6.818;2023-06-10T00:52:31;8.23;;;6.10;;
72891;SDS011;61032;50.782;6.818;2023-06-10T00:53:32;8.68;;;6.53;;
72891;SDS011;61032;50.782;6.818;2023-06-10T00:54:33;9.38;;;6.15;;
72891;SDS011;61032;50.782;6.818;2023-06-10T00:55:33;8.27;;;5.65;;
72891;SDS011;61032;50.782;6.818;2023-06-10T00:56:34;7.45;;;6.22;;
72891;SDS011;61032;50.782;6.818;2023-06-10T00:57:36;8.07;;;6.07;;
72891;SDS011;61032;50.782;6.818;2023-06-10T00:58:37;8.02;;;7.13;;
72891;SDS011;61032;50.782;6.818;2023-06-10T00:59:38;8.35;;;5.88;;
72891;SDS011;61032;50.782;6.818;2023-06-10T01:00:39;7.53;;;6.82;;
72891;SDS011;61032;50.782;6.818;2023-06-10T01:01:40;7.40;;;6.70;;
72891;SDS011;61032;50.782;6.818;2023-06-10T01:02:41;8.68;;;6.72;;
72891;SDS011;61032;50.782;6.818;2023-06-10T01:03:41;8.35;;;7.25;;
72891;SDS011;61032;50.782;6.818;2023-06-10T01:04:41;8.15;;;6.93;;
72891;SDS011;61032;50.782;6.818;2023-06-10T01:05:42;7.93;;;7.05;;
72891;SDS011;61032;50.782;6.818;2023-06-10T01:06:49;8.10;;;6.85;;
72891;SDS011;61032;50.782;6.818;2023-06-10T01:08:01;6.20;;;5.55;;
72891;SDS011;61032;50.782;6.818;2023-06-10T01:10:38;6.78;;;5.97;;
72891;SDS011;61032;50.782;6.818;2023-06-10T01:11:47;8.02;;;6.90;;
72891;SDS011;61032;50.782;6.818;2023-06-10T01:13:07;7.22;;;5.93;;
72891;SDS011;61032;50.782;6.818;2023-06-10T01:14:11;8.60;;;6.68;;
72891;SDS011;61032;50.782;6.818;2023-06-10T01:15:17;7.43;;;6.38;;
72891;SDS011;61032;50.782;6.818;2023-06-10T01:16:21;7.63;;;6.70;;
72891;SDS011;61032;50.782;6.818;2023-06-10T01:17:22;9.70;;;7.10;;
72891;SDS011;61032;50.782;6.818;2023-06-10T01:18:22;8.38;;;6.25;;
72891;SDS011;61032;50.782;6.818;2023-06-10T01:19:23;8.50;;;6.90;;
72891;SDS011;61032;50.782;6.818;2023-06-10T01:20:27;7.85;;;5.82;;
72891;SDS011;61032;50.782;6.818;2023-06-10T01:21:28;8.63;;;6.00;;
72891;SDS011;61032;50.782;6.818;2023-06-10T01:22:29;8.10;;;6.18;;
72891;SDS011;61032;50.782;6.818;2023-06-10T01:23:32;6.60;;;5.70;;
72891;SDS011;61032;50.782;6.818;2023-06-10T01:24:32;7.00;;;6.20;;
72891;SDS011;61032;50.782;6.818;2023-06-10T01:25:37;10.77;;;6.22;;
72891;SDS011;61032;50.782;6.818;2023-06-10T01:26:38;7.47;;;6.65;;
72891;SDS011;61032;50.782;6.818;2023-06-10T01:27:41;8.15;;;6.75;;
72891;SDS011;61032;50.782;6.818;2023-06-10T01:29:54;7.75;;;5.55;;
72891;SDS011;61032;50.782;6.818;2023-06-10T01:31:06;9.05;;;6.82;;
72891;SDS011;61032;50.782;6.818;2023-06-10T01:32:34;9.05;;;5.78;;
72891;SDS011;61032;50.782;6.818;2023-06-10T01:33:43;7.72;;;6.93;;
72891;SDS011;61032;50.782;6.818;2023-06-10T01:34:47;7.00;;;6.30;;
72891;SDS011;61032;50.782;6.818;2023-06-10T01:36:50;8.25;;;6.15;;
72891;SDS011;61032;50.782;6.818;2023-06-10T01:37:53;7.68;;;6.13;;
72891;SDS011;61032;50.782;6.818;2023-06-10T01:38:56;6.82;;;6.00;;
72891;SDS011;61032;50.782;6.818;2023-06-10T01:39:59;9.65;;;6.78;;
72891;SDS011;61032;50.782;6.818;2023-06-10T01:41:02;7.55;;;6.45;;
72891;SDS011;61032;50.782;6.818;2023-06-10T01:42:03;9.48;;;8.10;;
72891;SDS011;61032;50.782;6.818;2023-06-10T01:43:04;7.93;;;6.43;;
72891;SDS011;61032;50.782;6.818;2023-06-10T01:44:05;8.48;;;7.40;;
72891;SDS011;61032;50.782;6.818;2023-06-10T01:45:05;7.72;;;6.93;;
72891;SDS011;61032;50.782;6.818;2023-06-10T01:46:06;7.75;;;6.25;;
72891;SDS011;61032;50.782;6.818;2023-06-10T01:47:07;10.15;;;6.57;;
72891;SDS011;61032;50.782;6.818;2023-06-10T01:48:08;9.63;;;6.22;;
72891;SDS011;61032;50.782;6.818;2023-06-10T01:49:08;8.50;;;6.18;;
72891;SDS011;61032;50.782;6.818;2023-06-10T01:50:09;8.15;;;5.97;;
72891;SDS011;61032;50.782;6.818;2023-06-10T01:51:09;9.27;;;6.05;;
72891;SDS011;61032;50.782;6.818;2023-06-10T01:52:10;9.00;;;6.80;;
72891;SDS011;61032;50.782;6.818;2023-06-10T01:53:10;8.50;;;5.80;;
72891;SDS011;61032;50.782;6.818;2023-06-10T01:54:10;9.57;;;6.70;;
72891;SDS011;61032;50.782;6.818;2023-06-10T01:55:11;9.88;;;6.57;;
72891;SDS011;61032;50.782;6.818;2023-06-10T01:56:12;7.78;;;6.15;;
72891;SDS011;61032;50.782;6.818;2023-06-10T01:57:17;8.07;;;6.13;;
72891;SDS011;61032;50.782;6.818;2023-06-10T01:58:18;8.13;;;6.50;;
72891;SDS011;61032;50.782;6.818;2023-06-10T01:59:18;7.63;;;6.13;;
72891;SDS011;61032;50.782;6.818;2023-06-10T02:00:18;6.40;;;5.65;;
72891;SDS011;61032;50.782;6.818;2023-06-10T02:01:19;7.75;;;6.28;;
72891;SDS011;61032;50.782;6.818;2023-06-10T02:02:19;9.18;;;6.85;;
72891;SDS011;61032;50.782;6.818;2023-06-10T02:03:21;8.38;;;7.60;;
72891;SDS011;61032;50.782;6.818;2023-06-10T02:04:22;8.93;;;8.02;;
72891;SDS011;61032;50.782;6.818;2023-06-10T02:05:22;8.52;;;7.72;;
72891;SDS011;61032;50.782;6.818;2023-06-10T02:06:23;8.30;;;7.40;;
72891;SDS011;61032;50.782;6.818;2023-06-10T02:07:23;7.82;;;6.18;;
72891;SDS011;61032;50.782;6.818;2023-06-10T02:08:23;9.40;;;6.85;;
72891;SDS011;61032;50.782;6.818;2023-06-10T02:09:24;9.35;;;8.15;;
72891;SDS011;61032;50.782;6.818;2023-06-10T02:10:25;8.07;;;6.63;;
72891;SDS011;61032;50.782;6.818;2023-06-10T02:11:25;8.27;;;6.88;;
72891;SDS011;61032;50.782;6.818;2023-06-10T02:12:26;8.57;;;7.78;;
72891;SDS011;61032;50.782;6.818;2023-06-10T02:13:27;10.40;;;7.15;;
72891;SDS011;61032;50.782;6.818;2023-06-10T02:14:27;6.40;;;5.78;;
72891;SDS011;61032;50.782;6.818;2023-06-10T02:15:27;8.93;;;6.75;;
72891;SDS011;61032;50.782;6.818;2023-06-10T02:16:28;8.75;;;7.32;;
72891;SDS011;61032;50.782;6.818;2023-06-10T02:17:29;7.70;;;6.57;;
72891;SDS011;61032;50.782;6.818;2023-06-10T02:18:29;9.88;;;7.25;;
72891;SDS011;61032;50.782;6.818;2023-06-10T02:19:29;8.80;;;7.18;;
72891;SDS011;61032;50.782;6.818;2023-06-10T02:20:30;7.78;;;6.47;;
72891;SDS011;61032;50.782;6.818;2023-06-10T02:21:31;9.50;;;7.45;;
72891;SDS011;61032;50.782;6.818;2023-06-10T02:22:31;7.50;;;6.45;;
72891;SDS011;61032;50.782;6.818;2023-06-10T02:23:31;8.35;;;7.45;;
72891;SDS011;61032;50.782;6.818;2023-06-10T02:24:31;9.27;;;7.88;;
72891;SDS011;61032;50.782;6.818;2023-06-10T02:25:32;8.77;;;6.32;;
72891;SDS011;61032;50.782;6.818;2023-06-10T02:26:32;9.60;;;7.75;;
72891;SDS011;61032;50.782;6.818;2023-06-10T02:27:32;8.38;;;6.93;;
72891;SDS011;61032;50.782;6.818;2023-06-10T02:28:32;9.20;;;7.03;;
72891;SDS011;61032;50.782;6.818;2023-06-10T02:29:33;11.38;;;7.68;;
72891;SDS011;61032;50.782;6.818;2023-06-10T02:31:35;8.55;;;6.65;;
72891;SDS011;61032;50.782;6.818;2023-06-10T02:32:35;10.02;;;8.05;;
72891;SDS011;61032;50.782;6.818;2023-06-10T02:33:36;9.52;;;7.72;;
72891;SDS011;61032;50.782;6.818;2023-06-10T02:34:40;10.50;;;7.30;;
72891;SDS011;61032;50.782;6.818;2023-06-10T02:35:40;7.90;;;6.82;;
72891;SDS011;61032;50.782;6.818;2023-06-10T02:36:40;10.00;;;7.95;;
72891;SDS011;61032;50.782;6.818;2023-06-10T02:37:41;7.75;;;6.38;;
72891;SDS011;61032;50.782;6.818;2023-06-10T02:38:41;9.63;;;8.25;;
72891;SDS011;61032;50.782;6.818;2023-06-10T02:39:42;9.18;;;7.90;;
72891;SDS011;61032;50.782;6.818;2023-06-10T02:40:42;8.98;;;7.40;;
72891;SDS011;61032;50.782;6.818;2023-06-10T02:41:42;7.43;;;6.63;;
72891;SDS011;61032;50.782;6.818;2023-06-10T02:42:43;10.02;;;7.38;;
72891;SDS011;61032;50.782;6.818;2023-06-10T02:43:43;12.57;;;7.43;;
72891;SDS011;61032;50.782;6.818;2023-06-10T02:44:43;9.68;;;8.35;;
72891;SDS011;61032;50.782;6.818;2023-06-10T02:45:43;9.45;;;7.00;;
72891;SDS011;61032;50.782;6.818;2023-06-10T02:46:44;10.18;;;7.95;;
72891;SDS011;61032;50.782;6.818;2023-06-10T02:47:44;8.98;;;7.53;;
72891;SDS011;61032;50.782;6.818;2023-06-10T02:48:45;8.38;;;7.55;;
72891;SDS011;61032;50.782;6.818;2023-06-10T02:49:45;10.20;;;7.93;;
72891;SDS011;61032;50.782;6.818;2023-06-10T02:50:46;10.40;;;7.85;;
72891;SDS011;61032;50.782;6.818;2023-06-10T02:51:46;11.15;;;8.13;;
72891;SDS011;61032;50.782;6.818;2023-06-10T02:52:47;9.82;;;7.85;;
72891;SDS011;61032;50.782;6.818;2023-06-10T02:53:47;12.38;;;7.80;;
72891;SDS011;61032;50.782;6.818;2023-06-10T02:54:47;9.30;;;6.85;;
72891;SDS011;61032;50.782;6.818;2023-06-10T02:55:47;8.13;;;7.30;;
72891;SDS011;61032;50.782;6.818;2023-06-10T02:56:48;9.27;;;7.90;;
72891;SDS011;61032;50.782;6.818;2023-06-10T02:57:48;8.75;;;6.93;;
72891;SDS011;61032;50.782;6.818;2023-06-10T02:58:49;8.68;;;6.78;;
72891;SDS011;61032;50.782;6.818;2023-06-10T02:59:51;9.32;;;7.10;;
72891;SDS011;61032;50.782;6.818;2023-06-10T03:00:53;8.45;;;7.00;;
72891;SDS011;61032;50.782;6.818;2023-06-10T03:01:53;11.25;;;7.95;;
72891;SDS011;61032;50.782;6.818;2023-06-10T03:02:54;8.05;;;7.25;;
72891;SDS011;61032;50.782;6.818;2023-06-10T03:03:57;7.50;;;6.53;;
72891;SDS011;61032;50.782;6.818;2023-06-10T03:04:58;10.10;;;8.13;;
72891;SDS011;61032;50.782;6.818;2023-06-10T03:05:59;12.40;;;6.50;;
72891;SDS011;61032;50.782;6.818;2023-06-10T03:06:59;7.88;;;6.90;;
72891;SDS011;61032;50.782;6.818;2023-06-10T03:08:03;8.82;;;7.32;;
72891;SDS011;61032;50.782;6.818;2023-06-10T03:09:04;10.23;;;7.63;;
72891;SDS011;61032;50.782;6.818;2023-06-10T03:10:05;9.00;;;8.10;;
72891;SDS011;61032;50.782;6.818;2023-06-10T03:11:06;10.50;;;7.80;;
72891;SDS011;61032;50.782;6.818;2023-06-10T03:12:06;8.85;;;7.95;;
72891;SDS011;61032;50.782;6.818;2023-06-10T03:13:07;7.68;;;6.32;;
72891;SDS011;61032;50.782;6.818;2023-06-10T03:14:07;8.93;;;6.60;;
72891;SDS011;61032;50.782;6.818;2023-06-10T03:15:08;12.07;;;7.80;;
72891;SDS011;61032;50.782;6.818;2023-06-10T03:16:08;7.97;;;6.35;;
72891;SDS011;61032;50.782;6.818;2023-06-10T03:17:08;8.65;;;7.00;;
72891;SDS011;61032;50.782;6.818;2023-06-10T03:18:09;9.73;;;7.05;;
72891;SDS011;61032;50.782;6.818;2023-06-10T03:19:09;8.02;;;7.20;;
72891;SDS011;61032;50.782;6.818;2023-06-10T03:20:10;8.15;;;7.35;;
72891;SDS011;61032;50.782;6.818;2023-06-10T03:21:10;9.95;;;8.07;;
72891;SDS011;61032;50.782;6.818;2023-06-10T03:22:12;9.13;;;7.47;;
72891;SDS011;61032;50.782;6.818;2023-06-10T03:23:14;10.10;;;6.88;;
72891;SDS011;61032;50.782;6.818;2023-06-10T03:24:15;8.15;;;7.25;;
72891;SDS011;61032;50.782;6.818;2023-06-10T03:25:16;9.52;;;7.45;;
72891;SDS011;61032;50.782;6.818;2023-06-10T03:26:17;8.20;;;7.22;;
72891;SDS011;61032;50.782;6.818;2023-06-10T03:27:17;8.27;;;6.38;;
72891;SDS011;61032;50.782;6.818;2023-06-10T03:28:17;8.00;;;6.57;;
72891;SDS011;61032;50.782;6.818;2023-06-10T03:29:18;8.25;;;6.80;;
72891;SDS011;61032;50.782;6.818;2023-06-10T03:30:18;7.88;;;6.95;;
72891;SDS011;61032;50.782;6.818;2023-06-10T03:31:18;7.70;;;6.68;;
72891;SDS011;61032;50.782;6.818;2023-06-10T03:32:19;11.20;;;6.47;;
72891;SDS011;61032;50.782;6.818;2023-06-10T03:33:19;9.05;;;8.10;;
72891;SDS011;61032;50.782;6.818;2023-06-10T03:34:20;8.05;;;6.57;;
72891;SDS011;61032;50.782;6.818;2023-06-10T03:35:20;8.20;;;6.80;;
72891;SDS011;61032;50.782;6.818;2023-06-10T03:36:20;8.63;;;6.47;;
72891;SDS011;61032;50.782;6.818;2023-06-10T03:37:20;10.05;;;6.50;;
72891;SDS011;61032;50.782;6.818;2023-06-10T03:38:21;11.20;;;7.30;;
72891;SDS011;61032;50.782;6.818;2023-06-10T03:39:21;8.23;;;7.32;;
72891;SDS011;61032;50.782;6.818;2023-06-10T03:40:24;8.18;;;7.38;;
72891;SDS011;61032;50.782;6.818;2023-06-10T03:41:24;8.23;;;7.40;;
72891;SDS011;61032;50.782;6.818;2023-06-10T03:42:25;9.07;;;6.82;;
72891;SDS011;61032;50.782;6.818;2023-06-10T03:43:25;8.93;;;6.53;;
72891;SDS011;61032;50.782;6.818;2023-06-10T03:44:27;10.05;;;6.82;;
72891;SDS011;61032;50.782;6.818;2023-06-10T03:45:27;8.02;;;6.88;;
72891;SDS011;61032;50.782;6.818;2023-06-10T03:46:28;8.70;;;6.63;;
72891;SDS011;61032;50.782;6.818;2023-06-10T03:47:33;8.98;;;8.05;;
72891;SDS011;61032;50.782;6.818;2023-06-10T03:48:35;8.82;;;7.72;;
72891;SDS011;61032;50.782;6.818;2023-06-10T03:49:36;13.65;;;7.70;;
72891;SDS011;61032;50.782;6.818;2023-06-10T03:50:36;11.20;;;8.40;;
72891;SDS011;61032;50.782;6.818;2023-06-10T03:51:36;8.85;;;7.22;;
72891;SDS011;61032;50.782;6.818;2023-06-10T03:52:37;10.27;;;7.88;;
72891;SDS011;61032;50.782;6.818;2023-06-10T03:53:38;9.02;;;7.93;;
72891;SDS011;61032;50.782;6.818;2023-06-10T03:54:38;11.10;;;7.05;;
72891;SDS011;61032;50.782;6.818;2023-06-10T03:55:38;9.70;;;6.82;;
72891;SDS011;61032;50.782;6.818;2023-06-10T03:56:39;10.93;;;6.72;;
72891;SDS011;61032;50.782;6.818;2023-06-10T03:57:40;10.50;;;7.65;;
72891;SDS011;61032;50.782;6.818;2023-06-10T03:58:40;9.60;;;7.43;;
72891;SDS011;61032;50.782;6.818;2023-06-10T03:59:40;9.45;;;6.68;;
72891;SDS011;61032;50.782;6.818;2023-06-10T04:00:41;11.50;;;8.55;;
72891;SDS011;61032;50.782;6.818;2023-06-10T04:01:41;9.52;;;6.75;;
72891;SDS011;61032;50.782;6.818;2023-06-10T04:02:43;9.02;;;7.03;;
72891;SDS011;61032;50.782;6.818;2023-06-10T04:03:49;8.60;;;7.57;;
72891;SDS011;61032;50.782;6.818;2023-06-10T04:04:51;8.63;;;6.97;;
72891;SDS011;61032;50.782;6.818;2023-06-10T04:05:51;11.43;;;7.55;;
72891;SDS011;61032;50.782;6.818;2023-06-10T04:06:52;9.23;;;7.53;;
72891;SDS011;61032;50.782;6.818;2023-06-10T04:07:52;9.75;;;7.13;;
72891;SDS011;61032;50.782;6.818;2023-06-10T04:08:53;8.77;;;6.65;;
72891;SDS011;61032;50.782;6.818;2023-06-10T04:09:53;10.57;;;7.15;;
72891;SDS011;61032;50.782;6.818;2023-06-10T04:10:54;9.43;;;6.70;;
72891;SDS011;61032;50.782;6.818;2023-06-10T04:11:54;9.32;;;6.65;;
72891;SDS011;61032;50.782;6.818;2023-06-10T04:12:54;12.32;;;7.63;;
72891;SDS011;61032;50.782;6.818;2023-06-10T04:13:55;10.43;;;6.95;;
72891;SDS011;61032;50.782;6.818;2023-06-10T04:14:55;12.10;;;7.43;;
72891;SDS011;61032;50.782;6.818;2023-06-10T04:15:55;9.43;;;7.40;;
72891;SDS011;61032;50.782;6.818;2023-06-10T04:16:56;11.77;;;9.35;;
72891;SDS011;61032;50.782;6.818;2023-06-10T04:17:56;9.15;;;7.28;;
72891;SDS011;61032;50.782;6.818;2023-06-10T04:18:56;11.38;;;8.70;;
72891;SDS011;61032;50.782;6.818;2023-06-10T04:19:57;13.55;;;8.35;;
72891;SDS011;61032;50.782;6.818;2023-06-10T04:20:58;9.43;;;7.78;;
72891;SDS011;61032;50.782;6.818;2023-06-10T04:22:00;9.98;;;7.32;;
72891;SDS011;61032;50.782;6.818;2023-06-10T04:23:00;10.30;;;7.53;;
72891;SDS011;61032;50.782;6.818;2023-06-10T04:24:01;9.63;;;7.20;;
72891;SDS011;61032;50.782;6.818;2023-06-10T04:25:01;8.65;;;6.57;;
72891;SDS011;61032;50.782;6.818;2023-06-10T04:26:02;13.98;;;9.05;;
72891;SDS011;61032;50.782;6.818;2023-06-10T04:27:02;10.50;;;8.52;;
72891;SDS011;61032;50.782;6.818;2023-06-10T04:28:03;11.45;;;7.18;;
72891;SDS011;61032;50.782;6.818;2023-06-10T04:29:04;9.48;;;7.15;;
72891;SDS011;61032;50.782;6.818;2023-06-10T04:30:04;9.93;;;7.07;;
72891;SDS011;61032;50.782;6.818;2023-06-10T04:31:05;9.55;;;7.30;;
72891;SDS011;61032;50.782;6.818;2023-06-10T04:32:05;9.35;;;8.38;;
72891;SDS011;61032;50.782;6.818;2023-06-10T04:33:06;9.48;;;8.48;;
72891;SDS011;61032;50.782;6.818;2023-06-10T04:34:09;9.70;;;7.05;;
72891;SDS011;61032;50.782;6.818;2023-06-10T04:35:11;9.02;;;7.68;;
72891;SDS011;61032;50.782;6.818;2023-06-10T04:36:12;11.52;;;8.75;;
72891;SDS011;61032;50.782;6.818;2023-06-10T04:37:12;9.50;;;8.43;;
72891;SDS011;61032;50.782;6.818;2023-06-10T04:38:13;10.70;;;7.57;;
72891;SDS011;61032;50.782;6.818;2023-06-10T04:39:14;12.05;;;8.32;;
72891;SDS011;61032;50.782;6.818;2023-06-10T04:40:16;10.75;;;7.85;;
72891;SDS011;61032;50.782;6.818;2023-06-10T04:41:16;11.00;;;7.53;;
72891;SDS011;61032;50.782;6.818;2023-06-10T04:42:17;9.35;;;7.78;;
72891;SDS011;61032;50.782;6.818;2023-06-10T04:43:17;8.55;;;7.43;;
72891;SDS011;61032;50.782;6.818;2023-06-10T04:44:18;12.27;;;7.85;;
72891;SDS011;61032;50.782;6.818;2023-06-10T04:45:18;12.63;;;8.00;;
72891;SDS011;61032;50.782;6.818;2023-06-10T04:46:19;9.82;;;8.90;;
72891;SDS011;61032;50.782;6.818;2023-06-10T04:47:19;10.68;;;8.15;;
72891;SDS011;61032;50.782;6.818;2023-06-10T04:48:20;9.98;;;8.18;;
72891;SDS011;61032;50.782;6.818;2023-06-10T04:49:20;11.02;;;8.23;;
72891;SDS011;61032;50.782;6.818;2023-06-10T04:50:20;8.75;;;6.93;;
72891;SDS011;61032;50.782;6.818;2023-06-10T04:51:21;9.57;;;7.38;;
72891;SDS011;61032;50.782;6.818;2023-06-10T04:52:21;11.73;;;7.43;;
72891;SDS011;61032;50.782;6.818;2023-06-10T04:53:21;9.80;;;8.45;;
72891;SDS011;61032;50.782;6.818;2023-06-10T04:54:22;12.88;;;8.27;;
72891;SDS011;61032;50.782;6.818;2023-06-10T04:55:22;11.40;;;8.65;;
72891;SDS011;61032;50.782;6.818;2023-06-10T04:56:23;9.60;;;7.47;;
72891;SDS011;61032;50.782;6.818;2023-06-10T04:57:23;9.90;;;7.72;;
72891;SDS011;61032;50.782;6.818;2023-06-10T04:58:24;9.40;;;7.85;;
72891;SDS011;61032;50.782;6.818;2023-06-10T04:59:24;12.57;;;8.15;;
72891;SDS011;61032;50.782;6.818;2023-06-10T05:00:25;9.68;;;7.85;;
72891;SDS011;61032;50.782;6.818;2023-06-10T05:01:25;9.07;;;6.93;;
72891;SDS011;61032;50.782;6.818;2023-06-10T05:02:26;9.75;;;7.63;;
72891;SDS011;61032;50.782;6.818;2023-06-10T05:03:26;10.07;;;7.65;;
72891;SDS011;61032;50.782;6.818;2023-06-10T05:04:26;10.38;;;8.10;;
72891;SDS011;61032;50.782;6.818;2023-06-10T05:05:27;8.93;;;8.02;;
72891;SDS011;61032;50.782;6.818;2023-06-10T05:06:27;10.13;;;8.98;;
72891;SDS011;61032;50.782;6.818;2023-06-10T05:07:27;12.35;;;7.97;;
72891;SDS011;61032;50.782;6.818;2023-06-10T05:08:27;12.48;;;8.23;;
72891;SDS011;61032;50.782;6.818;2023-06-10T05:09:28;11.27;;;8.00;;
72891;SDS011;61032;50.782;6.818;2023-06-10T05:10:28;8.90;;;7.80;;
72891;SDS011;61032;50.782;6.818;2023-06-10T05:11:31;9.13;;;8.23;;
72891;SDS011;61032;50.782;6.818;2023-06-10T05:12:32;12.80;;;8.90;;
72891;SDS011;61032;50.782;6.818;2023-06-10T05:13:32;9.43;;;8.13;;
72891;SDS011;61032;50.782;6.818;2023-06-10T05:14:32;10.50;;;7.90;;
72891;SDS011;61032;50.782;6.818;2023-06-10T05:15:33;10.32;;;7.75;;
72891;SDS011;61032;50.782;6.818;2023-06-10T05:16:33;13.32;;;8.73;;
72891;SDS011;61032;50.782;6.818;2023-06-10T05:17:33;11.18;;;8.45;;
72891;SDS011;61032;50.782;6.818;2023-06-10T05:18:37;9.27;;;8.38;;
72891;SDS011;61032;50.782;6.818;2023-06-10T05:19:37;11.90;;;8.98;;
72891;SDS011;61032;50.782;6.818;2023-06-10T05:20:37;10.35;;;8.57;;
72891;SDS011;61032;50.782;6.818;2023-06-10T05:21:38;11.90;;;8.88;;
72891;SDS011;61032;50.782;6.818;2023-06-10T05:22:38;10.00;;;7.57;;
72891;SDS011;61032;50.782;6.818;2023-06-10T05:23:38;13.18;;;8.13;;
72891;SDS011;61032;50.782;6.818;2023-06-10T05:24:39;13.45;;;9.13;;
72891;SDS011;61032;50.782;6.818;2023-06-10T05:25:40;10.50;;;8.40;;
72891;SDS011;61032;50.782;6.818;2023-06-10T05:26:41;11.68;;;8.73;;
72891;SDS011;61032;50.782;6.818;2023-06-10T05:27:41;10.18;;;7.57;;
72891;SDS011;61032;50.782;6.818;2023-06-10T05:28:42;9.07;;;7.60;;
72891;SDS011;61032;50.782;6.818;2023-06-10T05:29:43;10.98;;;8.82;;
72891;SDS011;61032;50.782;6.818;2023-06-10T05:30:43;10.48;;;7.70;;
72891;SDS011;61032;50.782;6.818;2023-06-10T05:31:43;11.88;;;8.98;;
72891;SDS011;61032;50.782;6.818;2023-06-10T05:32:44;11.40;;;8.15;;
72891;SDS011;61032;50.782;6.818;2023-06-10T05:33:44;11.23;;;7.97;;
72891;SDS011;61032;50.782;6.818;2023-06-10T05:34:44;10.50;;;8.43;;
72891;SDS011;61032;50.782;6.818;2023-06-10T05:35:45;9.77;;;7.70;;
72891;SDS011;61032;50.782;6.818;2023-06-10T05:36:45;12.70;;;8.90;;
72891;SDS011;61032;50.782;6.818;2023-06-10T05:37:45;13.02;;;8.75;;
72891;SDS011;61032;50.782;6.818;2023-06-10T05:38:46;8.98;;;7.60;;
72891;SDS011;61032;50.782;6.818;2023-06-10T05:39:46;9.77;;;8.65;;
72891;SDS011;61032;50.782;6.818;2023-06-10T05:40:47;11.73;;;9.02;;
72891;SDS011;61032;50.782;6.818;2023-06-10T05:41:47;9.13;;;8.23;;
72891;SDS011;61032;50.782;6.818;2023-06-10T05:42:47;9.23;;;7.35;;
72891;SDS011;61032;50.782;6.818;2023-06-10T05:43:48;11.80;;;8.18;;
72891;SDS011;61032;50.782;6.818;2023-06-10T05:44:48;13.13;;;8.25;;
72891;SDS011;61032;50.782;6.818;2023-06-10T05:45:49;8.02;;;7.13;;
72891;SDS011;61032;50.782;6.818;2023-06-10T05:46:49;9.90;;;8.63;;
72891;SDS011;61032;50.782;6.818;2023-06-10T05:47:49;14.02;;;8.93;;
72891;SDS011;61032;50.782;6.818;2023-06-10T05:48:50;11.45;;;9.60;;
72891;SDS011;61032;50.782;6.818;2023-06-10T05:49:51;10.27;;;8.90;;
72891;SDS011;61032;50.782;6.818;2023-06-10T05:50:51;11.35;;;7.65;;
72891;SDS011;61032;50.782;6.818;2023-06-10T05:51:52;8.75;;;7.82;;
72891;SDS011;61032;50.782;6.818;2023-06-10T05:52:52;10.90;;;8.38;;
72891;SDS011;61032;50.782;6.818;2023-06-10T05:53:54;11.75;;;8.73;;
72891;SDS011;61032;50.782;6.818;2023-06-10T05:54:54;10.43;;;7.95;;
72891;SDS011;61032;50.782;6.818;2023-06-10T05:55:55;10.23;;;8.10;;
72891;SDS011;61032;50.782;6.818;2023-06-10T05:56:57;9.57;;;7.85;;
72891;SDS011;61032;50.782;6.818;2023-06-10T05:57:58;11.38;;;9.07;;
72891;SDS011;61032;50.782;6.818;2023-06-10T05:59:01;10.73;;;9.55;;
72891;SDS011;61032;50.782;6.818;2023-06-10T06:00:01;10.05;;;8.15;;
72891;SDS011;61032;50.782;6.818;2023-06-10T06:01:01;12.45;;;8.68;;
72891;SDS011;61032;50.782;6.818;2023-06-10T06:02:02;11.18;;;8.20;;
72891;SDS011;61032;50.782;6.818;2023-06-10T06:03:02;13.70;;;8.50;;
72891;SDS011;61032;50.782;6.818;2023-06-10T06:04:02;13.48;;;7.95;;
72891;SDS011;61032;50.782;6.818;2023-06-10T06:05:03;11.15;;;7.78;;
72891;SDS011;61032;50.782;6.818;2023-06-10T06:06:03;12.48;;;7.85;;
72891;SDS011;61032;50.782;6.818;2023-06-10T06:07:04;10.48;;;7.65;;
72891;SDS011;61032;50.782;6.818;2023-06-10T06:08:05;10.48;;;7.15;;
72891;SDS011;61032;50.782;6.818;2023-06-10T06:09:06;8.25;;;6.95;;
72891;SDS011;61032;50.782;6.818;2023-06-10T06:10:07;9.18;;;7.75;;
72891;SDS011;61032;50.782;6.818;2023-06-10T06:11:07;11.93;;;8.23;;